Time;durP1;ratioP1;P1;durP2;ratioP2;P2;SDS_P1;SDS_P2;PMS_P1;PMS_P2;Temp;Humidity;BMP_temperature;BMP_pressure;BME280_temperature;BME280_humidity;BME280_pressure;Samples;Min_cycle;Max_cycle;Signal;HPM_P1;HPM_P2
2024/04/10 00:06:15;;;;;;;10.05;2.83;;;10.00;15.50;;;;;;22188482;26;20019;-79
2024/04/10 00:16:17;;;;;;;10.02;3.33;;;10.10;17.70;;;;;;22208307;26;20018;-79
2024/04/10 00:26:18;;;;;;;8.63;2.85;;;9.80;35.80;;;;;;22201781;26;20040;-79
2024/04/10 00:36:20;;;;;;;11.98;3.08;;;9.60;56.10;;;;;;22223491;26;20016;-79
2024/04/10 00:46:22;;;;;;;10.48;2.70;;;9.40;89.00;;;;;;22193223;26;20026;-80
2024/04/10 00:56:23;;;;;;;9.38;3.33;;;9.40;99.90;;;;;;22058702;26;20008;-79
2024/04/10 01:06:31;;;;;;;16.58;3.28;;;9.30;99.90;;;;;;22075361;26;20027;-79
2024/04/10 01:16:32;;;;;;;13.40;3.67;;;9.30;99.90;;;;;;22070144;26;20020;-83
2024/04/10 01:26:33;;;;;;;10.27;3.85;;;9.40;99.90;;;;;;22019705;26;20645;-83
2024/04/10 01:36:34;;;;;;;12.77;3.10;;;9.40;99.90;;;;;;22049572;26;20476;-80
2024/04/10 01:46:35;;;;;;;13.00;3.42;;;9.50;99.90;;;;;;22057106;26;20009;-83
2024/04/10 01:56:36;;;;;;;12.75;3.45;;;9.40;97.40;;;;;;22198531;26;20483;-82
2024/04/10 02:06:37;;;;;;;10.00;3.05;;;9.40;95.50;;;;;;22228377;26;20008;-83
2024/04/10 02:16:38;;;;;;;12.32;3.10;;;9.50;74.80;;;;;;22217064;26;20124;-81
2024/04/10 02:26:39;;;;;;;13.80;2.75;;;9.50;56.40;;;;;;22189382;26;20023;-83
2024/04/10 02:36:40;;;;;;;8.82;2.58;;;9.50;57.20;;;;;;22232442;26;20000;-82
2024/04/10 02:46:41;;;;;;;10.43;2.65;;;9.50;46.30;;;;;;22223953;26;20004;-83
2024/04/10 02:56:42;;;;;;;10.38;3.00;;;9.50;33.60;;;;;;22187827;26;20012;-80
2024/04/10 03:06:43;;;;;;;17.33;3.35;;;9.50;35.00;;;;;;22175544;26;20011;-82
2024/04/10 03:16:44;;;;;;;12.73;2.85;;;9.50;36.40;;;;;;22209806;26;19996;-83
2024/04/10 03:26:45;;;;;;;12.20;2.50;;;9.60;33.90;;;;;;22199194;26;20051;-83
2024/04/10 03:36:46;;;;;;;13.38;2.53;;;9.40;45.10;;;;;;22207015;26;20063;-80
2024/04/10 03:46:47;;;;;;;12.55;3.05;;;9.30;57.30;;;;;;22163539;26;20328;-82
2024/04/10 03:56:48;;;;;;;8.65;2.60;;;9.30;72.50;;;;;;22226232;26;20074;-81
2024/04/10 04:06:49;;;;;;;12.68;3.85;;;9.30;79.40;;;;;;22192171;26;20033;-81
2024/04/10 04:16:50;;;;;;;13.25;3.30;;;9.30;88.70;;;;;;22197760;26;20475;-84
2024/04/10 04:26:51;;;;;;;8.02;2.45;;;9.20;94.20;;;;;;22195079;26;20047;-83
2024/04/10 04:36:52;;;;;;;10.82;2.53;;;9.20;92.50;;;;;;22193916;26;20043;-82
2024/04/10 04:46:53;;;;;;;9.10;2.40;;;9.20;84.80;;;;;;22220293;26;20040;-79
2024/04/10 04:56:54;;;;;;;14.48;2.95;;;9.20;58.60;;;;;;22224327;26;20707;-79
2024/04/10 05:06:55;;;;;;;7.40;2.22;;;9.20;50.50;;;;;;22247369;26;19999;-80
2024/04/10 05:16:56;;;;;;;11.57;2.50;;;9.20;43.20;;;;;;22241274;26;20007;-78
2024/04/10 05:26:57;;;;;;;9.82;2.78;;;9.10;48.20;;;;;;22234102;26;20015;-79
2024/04/10 05:36:58;;;;;;;12.32;2.80;;;9.10;43.00;;;;;;22193430;26;20120;-79
2024/04/10 05:47:03;;;;;;;14.50;2.70;;;9.30;32.50;;;;;;22219466;26;20003;-79
2024/04/10 05:57:04;;;;;;;9.63;2.28;;;9.30;19.60;;;;;;22162875;26;20055;-82
2024/04/10 06:07:06;;;;;;;9.32;2.22;;;9.30;12.80;;;;;;22199373;26;20016;-81
2024/04/10 06:17:07;;;;;;;7.55;1.98;;;9.30;8.80;;;;;;22215322;26;19996;-82
2024/04/10 06:27:08;;;;;;;7.82;2.10;;;9.20;12.10;;;;;;22221477;26;20016;-82
2024/04/10 06:37:09;;;;;;;9.52;2.42;;;9.30;8.20;;;;;;22250570;26;20015;-81
2024/04/10 06:47:10;;;;;;;12.95;2.42;;;9.60;7.00;;;;;;22244484;26;20001;-81
2024/04/10 06:57:10;;;;;;;11.60;2.10;;;9.60;6.00;;;;;;22194727;26;20007;-82
2024/04/10 07:07:12;;;;;;;13.68;2.60;;;9.70;1.00;;;;;;22236577;26;20038;-79
2024/04/10 07:17:13;;;;;;;17.33;3.88;;;9.90;1.00;;;;;;22244922;26;20008;-79
2024/04/10 07:27:14;;;;;;;9.85;1.95;;;10.20;1.00;;;;;;22212939;26;20073;-79
2024/04/10 07:37:15;;;;;;;8.07;1.67;;;10.40;1.00;;;;;;22248147;26;19996;-79
2024/04/10 07:47:16;;;;;;;10.45;2.10;;;10.70;1.00;;;;;;22244881;26;20321;-79
2024/04/10 07:57:17;;;;;;;8.50;2.42;;;10.90;1.00;;;;;;22243001;26;20308;-80
2024/04/10 08:07:19;;;;;;;9.77;2.05;;;11.20;1.00;;;;;;22239376;26;20004;-79
2024/04/10 08:17:20;;;;;;;8.73;1.95;;;11.50;1.00;;;;;;22244971;26;20007;-79
2024/04/10 08:27:21;;;;;;;7.72;2.50;;;11.70;1.00;;;;;;22235728;26;19996;-78
2024/04/10 08:37:22;;;;;;;11.55;1.80;;;11.50;1.00;;;;;;22253968;26;20004;-78
2024/04/10 08:47:25;;;;;;;8.80;3.03;;;11.90;1.00;;;;;;22248809;26;20000;-78
2024/04/10 08:57:26;;;;;;;7.97;1.83;;;12.10;1.00;;;;;;22222232;26;20024;-78
2024/04/10 09:07:27;;;;;;;7.13;1.63;;;12.40;1.00;;;;;;22271248;26;20016;-78
2024/04/10 09:17:28;;;;;;;13.18;1.60;;;12.50;1.00;;;;;;22253978;26;20157;-78
2024/04/10 09:27:29;;;;;;;7.70;1.50;;;13.50;1.00;;;;;;22276352;26;19999;-76
2024/04/10 09:37:31;;;;;;;7.07;1.65;;;13.90;1.00;;;;;;22237161;26;19997;-79
2024/04/10 09:47:37;;;;;;;8.95;1.33;;;14.10;1.00;;;;;;22238544;26;20411;-76
2024/04/10 09:57:39;;;;;;;7.22;1.15;;;13.90;1.00;;;;;;22217948;26;20011;-76
2024/04/10 10:07:40;;;;;;;8.23;1.30;;;14.30;1.00;;;;;;22224947;26;20403;-78
2024/04/10 10:17:52;;;;;;;7.82;1.23;;;14.50;1.00;;;;;;22227898;26;20012;-77
2024/04/10 10:28:07;;;;;;;6.15;1.13;;;14.40;1.00;;;;;;22207409;26;20011;-77
2024/04/10 10:38:08;;;;;;;7.80;0.88;;;14.40;1.00;;;;;;22258417;26;20422;-84
2024/04/10 10:48:17;;;;;;;4.22;0.93;;;14.80;1.00;;;;;;22252317;26;20010;-82
2024/04/10 10:58:18;;;;;;;7.63;1.00;;;15.20;1.00;;;;;;22218759;26;20542;-81
2024/04/10 11:08:23;;;;;;;6.85;0.75;;;15.30;1.00;;;;;;22160995;26;20008;-83
2024/04/10 11:18:25;;;;;;;3.35;0.80;;;16.00;1.00;;;;;;22197544;26;21643;-83
2024/04/10 11:28:26;;;;;;;4.32;0.77;;;16.50;1.00;;;;;;22271981;26;20003;-84
2024/04/10 11:38:27;;;;;;;5.18;0.55;;;16.80;1.00;;;;;;22265392;26;20067;-84
2024/04/10 11:48:28;;;;;;;4.85;0.80;;;16.70;1.00;;;;;;22271086;26;20053;-77
2024/04/10 11:58:29;;;;;;;3.60;0.80;;;17.30;1.00;;;;;;22234041;26;20000;-79
2024/04/10 12:08:32;;;;;;;4.10;1.33;;;17.30;1.00;;;;;;22186118;26;20000;-77
2024/04/10 12:18:33;;;;;;;7.53;0.77;;;17.20;1.00;;;;;;22191680;26;20011;-76
2024/04/10 12:28:34;;;;;;;5.18;0.90;;;17.20;1.00;;;;;;22227170;26;19991;-80
2024/04/10 12:38:35;;;;;;;2.20;0.63;;;17.40;1.00;;;;;;22222586;26;20031;-78
2024/04/10 12:48:37;;;;;;;5.82;0.70;;;17.40;1.00;;;;;;22228123;26;20003;-76
2024/04/10 12:58:38;;;;;;;4.72;0.60;;;18.30;1.00;;;;;;22233217;26;20146;-81
2024/04/10 13:08:39;;;;;;;6.60;1.83;;;18.50;1.00;;;;;;22241805;26;20057;-81
2024/04/10 13:18:43;;;;;;;4.03;0.93;;;18.70;1.00;;;;;;22227686;26;20892;-78
2024/04/10 13:28:49;;;;;;;2.45;0.75;;;18.70;1.00;;;;;;22210253;26;20000;-82
2024/04/10 13:38:52;;;;;;;3.92;0.68;;;19.00;1.00;;;;;;22226252;26;20007;-81
2024/04/10 13:48:54;;;;;;;3.70;0.90;;;19.20;1.00;;;;;;22220449;26;20008;-81
2024/04/10 13:58:55;;;;;;;3.60;0.55;;;19.50;1.00;;;;;;22174939;26;20093;-80
2024/04/10 14:08:56;;;;;;;3.17;0.82;;;19.20;1.00;;;;;;22246438;26;19996;-75
2024/04/10 14:18:57;;;;;;;3.88;0.80;;;19.20;1.00;;;;;;22214281;26;20319;-80
2024/04/10 14:28:58;;;;;;;4.35;0.95;;;18.50;1.00;;;;;;22244860;26;20012;-80
2024/04/10 14:38:59;;;;;;;2.70;0.80;;;17.70;1.00;;;;;;22219017;26;20097;-76
2024/04/10 14:49:00;;;;;;;5.00;0.88;;;17.40;1.00;;;;;;22208047;26;20454;-76
2024/04/10 14:59:01;;;;;;;4.72;0.73;;;17.10;1.00;;;;;;22270742;26;19999;-80
2024/04/10 15:09:04;;;;;;;2.97;0.77;;;16.80;1.00;;;;;;22242507;26;20008;-79
2024/04/10 15:19:05;;;;;;;4.45;1.70;;;16.80;1.00;;;;;;22237414;26;20012;-78
2024/04/10 15:29:06;;;;;;;5.88;1.00;;;16.60;1.00;;;;;;22210303;26;20080;-81
2024/04/10 15:39:07;;;;;;;4.57;0.93;;;16.40;1.00;;;;;;22230019;26;20023;-78
2024/04/10 15:49:10;;;;;;;3.92;1.10;;;16.40;1.00;;;;;;22195783;26;20012;-79
2024/04/10 15:59:11;;;;;;;6.63;1.08;;;16.30;1.00;;;;;;22208887;26;20296;-78
2024/04/10 16:09:13;;;;;;;3.80;1.13;;;16.30;1.00;;;;;;22263328;26;20332;-78
2024/04/10 16:19:15;;;;;;;8.70;1.30;;;16.00;1.00;;;;;;22229463;26;19999;-78
2024/04/10 16:29:16;;;;;;;4.95;0.90;;;15.70;1.00;;;;;;22205061;26;20004;-78
2024/04/10 16:39:17;;;;;;;6.60;1.50;;;15.50;1.00;;;;;;22226122;26;20431;-76
2024/04/10 16:49:18;;;;;;;6.93;1.50;;;15.30;1.00;;;;;;22230805;26;20672;-79
2024/04/10 16:59:19;;;;;;;7.97;1.83;;;15.00;1.00;;;;;;22296798;26;20003;-78
2024/04/10 17:09:20;;;;;;;4.22;1.20;;;14.90;1.00;;;;;;22246407;26;20541;-76
2024/04/10 17:29:40;;;;;;;9.20;1.60;;;14.70;1.00;;;;;;22219601;26;20028;-79
2024/04/10 17:39:41;;;;;;;3.30;1.20;;;14.60;1.00;;;;;;22201515;26;20050;-81
2024/04/10 17:49:42;;;;;;;5.82;1.40;;;14.50;1.00;;;;;;22165539;26;20010;-82
2024/04/10 17:59:43;;;;;;;6.40;1.30;;;14.20;1.00;;;;;;22193269;26;20450;-78
2024/04/10 18:11:27;;;;;;;4.53;1.02;;;14.00;1.00;;;;;;22206363;25;20501;-44
2024/04/10 18:21:28;;;;;;;12.30;4.60;;;14.00;1.00;;;;;;22095367;26;20012;-44
2024/04/10 18:31:29;;;;;;;4.43;1.10;;;13.80;1.00;;;;;;22097631;26;20466;-44
2024/04/10 18:41:33;;;;;;;6.78;1.65;;;13.70;1.00;;;;;;22099479;26;20074;-43
2024/04/10 18:51:34;;;;;;;4.90;1.23;;;13.40;1.00;;;;;;22100254;26;20009;-43
2024/04/10 19:01:35;;;;;;;7.32;2.35;;;13.30;1.00;;;;;;22089650;26;20016;-43
2024/04/10 19:11:37;;;;;;;9.32;2.28;;;13.20;1.00;;;;;;22046247;26;19998;-43
2024/04/10 19:21:38;;;;;;;7.68;2.00;;;13.10;1.00;;;;;;21990167;26;20086;-43
2024/04/10 19:31:39;;;;;;;5.45;1.80;;;13.20;1.00;;;;;;21958470;26;20016;-44
2024/04/10 19:41:40;;;;;;;8.13;2.33;;;13.20;1.00;;;;;;22031545;26;20539;-43
2024/04/10 19:51:43;;;;;;;5.47;1.80;;;13.10;1.00;;;;;;21989587;26;20449;-44
2024/04/10 20:01:44;;;;;;;4.15;1.10;;;13.10;1.00;;;;;;21979374;26;20020;-43
2024/04/10 20:11:45;;;;;;;6.85;1.58;;;13.20;1.00;;;;;;21982213;26;20502;-43
2024/04/10 20:21:46;;;;;;;7.38;1.50;;;13.10;1.00;;;;;;21983664;26;20053;-43
2024/04/10 20:31:48;;;;;;;9.77;1.58;;;13.10;1.00;;;;;;21959428;26;19993;-44
2024/04/10 20:41:52;;;;;;;7.47;1.70;;;13.00;1.00;;;;;;21985726;26;20240;-43
2024/04/10 20:51:53;;;;;;;6.40;1.42;;;12.80;1.00;;;;;;21977540;26;20078;-44
2024/04/10 21:01:53;;;;;;;4.45;1.10;;;12.80;1.00;;;;;;21981306;26;20005;-44
2024/04/10 22:13:52;;;;;;;6.03;1.65;;;12.40;1.00;;;;;;22094482;26;20522;-43
2024/04/10 22:24:00;;;;;;;7.53;1.60;;;12.50;1.00;;;;;;22008968;26;20351;-43
2024/04/10 22:34:04;;;;;;;7.88;2.08;;;12.60;1.00;;;;;;21948101;26;20095;-43
2024/04/10 22:44:05;;;;;;;5.07;1.45;;;12.60;1.00;;;;;;21948699;26;20329;-44
2024/04/10 22:54:07;;;;;;;7.72;1.45;;;12.60;1.00;;;;;;21963693;26;20013;-44
2024/04/10 23:04:08;;;;;;;6.40;1.30;;;12.60;1.00;;;;;;21944746;26;20094;-43
2024/04/10 23:14:09;;;;;;;8.60;1.63;;;12.60;1.00;;;;;;21973166;26;20001;-44
2024/04/10 23:24:10;;;;;;;4.80;1.10;;;12.70;1.00;;;;;;21960421;26;20793;-43
2024/04/10 23:34:11;;;;;;;5.15;1.27;;;12.70;1.00;;;;;;21969957;26;20040;-43
2024/04/10 23:44:12;;;;;;;7.85;1.48;;;12.80;1.00;;;;;;22025125;26;20351;-43
2024/04/10 23:54:13;;;;;;;6.75;1.25;;;12.90;1.00;;;;;;22114914;26;20000;-43
